Time;durP1;ratioP1;P1;durP2;ratioP2;P2;SDS_P1;SDS_P2;PMS_P1;PMS_P2;Temp;Humidity;BMP_temperature;BMP_pressure;BME280_temperature;BME280_humidity;BME280_pressure;Samples;Min_cycle;Max_cycle;Signal;HPM_P1;HPM_P2
2023/09/14 00:00:42;;;;;;;9.18;4.03;;;;;;;22.18;100.00;100047.84;5588040;31;33783;-66
2023/09/14 00:03:45;;;;;;;6.30;3.40;;;;;;;22.23;100.00;100049.78;5587915;31;34547;-68
2023/09/14 00:06:48;;;;;;;7.15;3.42;;;;;;;22.20;100.00;100048.44;5587817;31;33941;-67
2023/09/14 00:09:51;;;;;;;10.73;3.35;;;;;;;22.21;100.00;100051.94;5587851;31;34626;-68
2023/09/14 00:12:55;;;;;;;12.85;3.50;;;;;;;22.16;100.00;100071.63;5589871;31;33842;-68
2023/09/14 00:15:58;;;;;;;7.15;3.12;;;;;;;22.13;100.00;100065.88;5590947;31;33789;-68
2023/09/14 00:19:01;;;;;;;5.03;3.00;;;;;;;22.07;100.00;100063.13;5590696;31;33772;-68
2023/09/14 00:22:05;;;;;;;6.05;2.83;;;;;;;22.08;100.00;100066.63;5590653;31;34893;-68
2023/09/14 00:25:08;;;;;;;6.62;3.05;;;;;;;22.07;100.00;100059.62;5590531;31;34045;-67
2023/09/14 00:28:11;;;;;;;7.40;3.20;;;;;;;22.02;100.00;100070.34;5590641;31;34533;-67
2023/09/14 00:31:13;;;;;;;6.90;2.92;;;;;;;21.97;100.00;100062.19;5590124;31;34326;-68
2023/09/14 00:34:16;;;;;;;9.65;3.10;;;;;;;21.97;100.00;100063.00;5590470;31;33847;-68
2023/09/14 00:37:19;;;;;;;7.75;2.90;;;;;;;21.98;100.00;100064.63;5590515;31;33899;-68
2023/09/14 00:40:23;;;;;;;6.93;2.78;;;;;;;21.97;100.00;100054.09;5590428;31;33899;-69
2023/09/14 00:43:26;;;;;;;4.37;2.70;;;;;;;21.86;100.00;100053.09;5590485;31;33901;-67
2023/09/14 00:46:29;;;;;;;5.60;2.80;;;;;;;21.81;100.00;100038.69;5590310;31;33762;-68
2023/09/14 00:49:33;;;;;;;5.43;3.00;;;;;;;21.77;100.00;100040.28;5590351;31;33853;-67
2023/09/14 00:52:37;;;;;;;5.30;3.25;;;;;;;21.65;100.00;100037.66;5590337;31;33978;-68
2023/09/14 00:55:43;;;;;;;4.43;3.03;;;;;;;21.53;100.00;100028.88;5590073;31;34143;-67
2023/09/14 00:58:47;;;;;;;4.25;3.05;;;;;;;21.42;100.00;100027.06;5590356;31;33916;-67
2023/09/14 01:01:50;;;;;;;6.12;3.25;;;;;;;21.29;100.00;100020.13;5590290;31;34497;-67
2023/09/14 01:04:54;;;;;;;6.90;3.15;;;;;;;21.19;100.00;100020.78;5590267;31;33988;-68
2023/09/14 01:07:57;;;;;;;7.82;3.40;;;;;;;21.14;100.00;100011.81;5590192;31;33814;-67
2023/09/14 01:11:01;;;;;;;5.68;3.40;;;;;;;21.12;100.00;100025.50;5590505;31;34507;-67
2023/09/14 01:14:17;;;;;;;5.50;3.05;;;;;;;21.10;100.00;100027.63;5590010;31;33932;-67
2023/09/14 01:17:31;;;;;;;6.28;3.22;;;;;;;21.10;100.00;100024.94;5590076;31;34583;-68
2023/09/14 01:21:12;;;;;;;4.47;3.37;;;;;;;21.11;100.00;100004.97;5590232;31;34503;-67
2023/09/14 01:24:32;;;;;;;8.68;3.65;;;;;;;21.05;100.00;100013.25;5589208;31;33930;-67
2023/09/14 01:27:35;;;;;;;7.80;3.80;;;;;;;21.10;100.00;100010.63;5590285;31;34623;-67
2023/09/14 01:30:40;;;;;;;8.85;3.72;;;;;;;20.98;100.00;100024.19;5589880;31;33817;-68
2023/09/14 01:33:48;;;;;;;8.82;3.50;;;;;;;20.90;100.00;100013.81;5590023;31;34579;-66
2023/09/14 01:36:58;;;;;;;7.95;4.05;;;;;;;20.85;100.00;100008.31;5589891;31;34520;-68
2023/09/14 01:40:06;;;;;;;6.15;3.97;;;;;;;20.74;100.00;100011.91;5590030;31;33950;-67
2023/09/14 01:43:11;;;;;;;13.38;4.22;;;;;;;20.66;100.00;100005.03;5589878;31;34018;-68
2023/09/14 01:46:14;;;;;;;6.07;3.87;;;;;;;20.56;100.00;100002.16;5589683;31;34524;-68
2023/09/14 01:49:17;;;;;;;6.55;3.92;;;;;;;20.42;100.00;100000.81;5589853;31;33827;-68
2023/09/14 01:52:20;;;;;;;9.05;4.20;;;;;;;20.32;100.00;99996.06;5589793;31;33841;-67
2023/09/14 01:55:23;;;;;;;5.90;3.85;;;;;;;20.25;100.00;99991.81;5589835;31;33781;-68
2023/09/14 01:58:26;;;;;;;9.00;4.15;;;;;;;20.25;100.00;100016.06;5589706;31;35017;-68
2023/09/14 02:01:29;;;;;;;7.97;3.67;;;;;;;20.21;100.00;99991.50;5589687;31;33852;-68
2023/09/14 02:04:32;;;;;;;9.30;3.90;;;;;;;20.13;100.00;100004.53;5589721;31;34575;-68
2023/09/14 02:07:35;;;;;;;9.80;4.20;;;;;;;20.10;100.00;100005.81;5589594;31;33931;-67
2023/09/14 02:10:38;;;;;;;8.90;4.50;;;;;;;20.10;100.00;100007.69;5589945;31;34487;-68
2023/09/14 02:13:40;;;;;;;5.40;3.70;;;;;;;20.05;100.00;100019.16;5589965;31;34029;-68
2023/09/14 02:16:43;;;;;;;10.40;4.30;;;;;;;19.97;100.00;100006.09;5589492;31;34472;-67
2023/09/14 02:19:46;;;;;;;6.70;4.28;;;;;;;19.91;100.00;100017.78;5589608;31;34497;-68
2023/09/14 02:22:51;;;;;;;6.57;4.18;;;;;;;19.89;100.00;100017.25;5589674;31;33185;-67
2023/09/14 02:25:54;;;;;;;4.90;3.90;;;;;;;19.79;100.00;100019.72;5589486;31;33803;-68
2023/09/14 02:28:56;;;;;;;8.02;4.40;;;;;;;19.85;100.00;100026.81;5589692;31;34194;-68
2023/09/14 02:31:59;;;;;;;4.82;4.03;;;;;;;19.82;100.00;100043.44;5589577;31;34689;-68
2023/09/14 02:35:02;;;;;;;10.40;4.07;;;;;;;19.79;100.00;100041.25;5589359;31;33841;-69
2023/09/14 02:38:06;;;;;;;7.00;4.20;;;;;;;19.79;100.00;100044.75;5589306;31;33861;-69
2023/09/14 02:41:09;;;;;;;6.43;4.00;;;;;;;19.88;100.00;100053.28;5589391;31;33847;-69
2023/09/14 02:44:12;;;;;;;7.12;4.12;;;;;;;19.82;100.00;100049.66;5588615;31;33819;-68
2023/09/14 02:47:15;;;;;;;6.32;3.80;;;;;;;19.79;100.00;100046.63;5589222;31;34483;-68
2023/09/14 02:50:17;;;;;;;8.40;3.85;;;;;;;19.77;100.00;100040.66;5589228;31;33869;-68
2023/09/14 02:53:20;;;;;;;7.50;4.22;;;;;;;19.72;100.00;100049.44;5589242;31;34628;-68
2023/09/14 02:56:23;;;;;;;6.80;4.00;;;;;;;19.73;100.00;100058.31;5589094;31;33938;-68
2023/09/14 02:59:26;;;;;;;7.00;4.25;;;;;;;19.64;100.00;100054.34;5588997;31;34779;-68
2023/09/14 03:02:29;;;;;;;6.03;3.90;;;;;;;19.64;100.00;100054.34;5589455;31;33802;-68
2023/09/14 03:05:31;;;;;;;5.30;3.58;;;;;;;19.62;100.00;100065.34;5589073;31;33762;-68
2023/09/14 03:08:34;;;;;;;7.90;4.20;;;;;;;19.68;100.00;100067.09;5588993;31;34518;-68
2023/09/14 03:11:37;;;;;;;5.07;4.03;;;;;;;19.64;100.00;100071.31;5588903;31;34231;-69
2023/09/14 03:14:41;;;;;;;5.00;3.83;;;;;;;19.62;100.00;100065.34;5588855;31;33840;-68
2023/09/14 03:17:44;;;;;;;7.85;4.18;;;;;;;19.61;100.00;100066.38;5588840;31;33814;-69
2023/09/14 03:20:51;;;;;;;6.10;3.70;;;;;;;19.58;100.00;100064.19;5588922;31;33919;-68
2023/09/14 03:23:54;;;;;;;6.12;4.10;;;;;;;19.58;100.00;100057.97;5588839;31;33865;-68
2023/09/14 03:26:57;;;;;;;5.75;4.20;;;;;;;19.61;100.00;100073.66;5588678;31;33828;-69
2023/09/14 03:29:59;;;;;;;7.50;4.40;;;;;;;19.53;100.00;100072.13;5588840;31;33919;-69
2023/09/14 03:33:03;;;;;;;6.40;4.10;;;;;;;19.59;100.00;100078.47;5588175;31;34168;-68
2023/09/14 03:36:06;;;;;;;6.80;3.90;;;;;;;19.55;100.00;100071.91;5588495;31;33902;-68
2023/09/14 03:39:11;;;;;;;5.50;4.05;;;;;;;19.59;100.00;100065.00;5588458;31;33805;-69
2023/09/14 03:42:14;;;;;;;6.95;4.20;;;;;;;19.62;100.00;100059.12;5588400;31;33951;-69
2023/09/14 03:45:17;;;;;;;7.05;4.20;;;;;;;19.62;100.00;100067.22;5588396;31;34608;-69
2023/09/14 03:48:20;;;;;;;6.40;4.53;;;;;;;19.58;100.00;100063.34;5590599;31;33841;-69
2023/09/14 03:51:23;;;;;;;7.78;4.40;;;;;;;19.58;100.00;100071.44;5590422;31;34249;-69
2023/09/14 03:54:26;;;;;;;6.40;4.95;;;;;;;19.58;100.00;100066.88;5591303;31;33155;-69
2023/09/14 03:57:29;;;;;;;6.07;4.80;;;;;;;19.56;100.00;100085.09;5589910;31;33860;-69
2023/09/14 04:00:33;;;;;;;9.32;4.90;;;;;;;19.63;100.00;100085.00;5590646;31;34168;-69
2023/09/14 04:03:36;;;;;;;9.85;5.15;;;;;;;19.67;100.00;100087.00;5591023;31;33809;-70
2023/09/14 04:06:39;;;;;;;7.32;5.00;;;;;;;19.57;100.00;100094.81;5590583;31;34673;-68
2023/09/14 04:09:43;;;;;;;8.05;5.00;;;;;;;19.57;100.00;100088.63;5590573;31;34898;-70
2023/09/14 04:12:45;;;;;;;8.23;5.18;;;;;;;19.55;100.00;100104.19;5590875;31;33848;-69
2023/09/14 04:15:48;;;;;;;6.90;5.12;;;;;;;19.49;100.00;100100.56;5590626;31;34499;-70
2023/09/14 04:18:51;;;;;;;9.18;5.20;;;;;;;19.42;100.00;100103.31;5590616;31;33877;-71
2023/09/14 04:21:55;;;;;;;7.53;4.90;;;;;;;19.43;100.00;100109.53;5590361;31;33871;-70
2023/09/14 04:25:01;;;;;;;12.48;5.45;;;;;;;19.51;100.00;100111.91;5590418;31;34590;-70
2023/09/14 04:28:04;;;;;;;10.98;5.72;;;;;;;19.46;100.00;100112.59;5590878;31;33919;-70
2023/09/14 04:31:09;;;;;;;7.62;5.85;;;;;;;19.44;100.00;100117.41;5590441;31;35076;-70
2023/09/14 04:34:12;;;;;;;9.55;6.25;;;;;;;19.33;100.00;100110.09;5590211;31;34801;-70
2023/09/14 04:37:15;;;;;;;9.45;6.30;;;;;;;19.31;100.00;100108.69;5590036;31;34507;-69
2023/09/14 04:40:18;;;;;;;7.35;6.05;;;;;;;19.24;100.00;100113.34;5590343;31;33986;-70
2023/09/14 04:43:22;;;;;;;14.05;6.03;;;;;;;19.22;100.00;100118.16;5590068;31;34501;-68
2023/09/14 04:46:25;;;;;;;10.77;6.40;;;;;;;19.25;100.00;100121.19;5590099;31;33771;-68
2023/09/14 04:49:28;;;;;;;7.43;6.03;;;;;;;19.16;100.00;100116.38;5590103;31;35358;-69
2023/09/14 04:52:31;;;;;;;8.23;6.10;;;;;;;19.12;100.00;100116.81;5589409;31;34636;-70
2023/09/14 04:55:34;;;;;;;8.52;5.70;;;;;;;19.22;100.00;100116.25;5590194;31;34538;-69
2023/09/14 04:58:37;;;;;;;6.65;5.30;;;;;;;19.17;100.00;100118.03;5589246;31;33766;-67
2023/09/14 05:01:39;;;;;;;7.78;5.70;;;;;;;19.29;100.00;100122.37;5589997;31;34731;-69
2023/09/14 05:04:43;;;;;;;8.50;5.15;;;;;;;19.31;100.00;100122.16;5589902;31;34732;-68
2023/09/14 05:07:46;;;;;;;7.32;5.43;;;;;;;19.33;100.00;100128.09;5590237;31;34639;-68
2023/09/14 05:10:50;;;;;;;9.48;5.15;;;;;;;19.32;100.00;100124.59;5589864;31;34008;-69
2023/09/14 05:13:53;;;;;;;7.80;5.05;;;;;;;19.48;100.00;100134.72;5589759;31;33955;-71
2023/09/14 05:16:56;;;;;;;10.20;5.40;;;;;;;19.57;100.00;100137.88;5589808;31;33885;-69
2023/09/14 05:19:59;;;;;;;14.35;4.72;;;;;;;19.59;100.00;100141.16;5590025;31;33882;-69
2023/09/14 05:23:04;;;;;;;8.20;4.72;;;;;;;19.53;100.00;100148.28;5590382;31;33872;-69
2023/09/14 05:26:09;;;;;;;8.30;4.50;;;;;;;19.46;100.00;100133.31;5590101;31;33799;-70
2023/09/14 05:29:12;;;;;;;6.85;4.40;;;;;;;19.51;100.00;100153.06;5589003;31;34386;-69
2023/09/14 05:32:15;;;;;;;10.25;5.10;;;;;;;19.60;100.00;100147.38;5589776;31;34227;-68
2023/09/14 05:35:18;;;;;;;7.80;4.32;;;;;;;19.65;100.00;100142.94;5589687;31;35277;-69
2023/09/14 05:38:21;;;;;;;10.40;5.03;;;;;;;19.68;100.00;100142.47;5589184;31;33939;-69
2023/09/14 05:41:24;;;;;;;7.70;4.37;;;;;;;19.69;100.00;100137.91;5589978;31;34612;-69
2023/09/14 05:44:27;;;;;;;7.95;4.37;;;;;;;19.83;100.00;100144.69;5589484;31;34532;-69
2023/09/14 05:47:30;;;;;;;7.00;4.53;;;;;;;19.89;100.00;100154.53;5589133;31;33943;-68
2023/09/14 05:50:35;;;;;;;7.40;4.22;;;;;;;19.94;100.00;100155.44;5589041;31;34613;-69
2023/09/14 05:53:38;;;;;;;6.72;4.28;;;;;;;19.91;100.00;100158.63;5589419;31;33985;-69
2023/09/14 05:56:42;;;;;;;9.52;4.80;;;;;;;19.92;100.00;100157.56;5589030;31;34890;-70
2023/09/14 05:59:46;;;;;;;9.60;4.45;;;;;;;20.00;100.00;100155.56;5589286;31;35213;-68
2023/09/14 06:02:48;;;;;;;9.57;5.20;;;;;;;19.82;100.00;100160.03;5589233;31;33985;-68
2023/09/14 06:05:52;;;;;;;9.35;5.07;;;;;;;19.66;100.00;100159.88;5588775;31;34918;-68
2023/09/14 06:08:59;;;;;;;12.10;5.05;;;;;;;19.64;100.00;100156.63;5588221;31;33579;-69
2023/09/14 06:12:03;;;;;;;9.73;5.47;;;;;;;19.64;100.00;100157.44;5588844;31;33871;-67
2023/09/14 06:15:06;;;;;;;7.70;5.18;;;;;;;19.63;100.00;100154.97;5588906;31;34510;-70
2023/09/14 06:18:09;;;;;;;11.63;5.10;;;;;;;19.54;100.00;100154.50;5588959;31;33965;-69
2023/09/14 06:21:12;;;;;;;14.32;5.40;;;;;;;19.65;100.00;100166.34;5588884;31;34623;-68
2023/09/14 06:24:15;;;;;;;10.30;5.43;;;;;;;19.63;100.00;100163.88;5588960;31;34650;-68
2023/09/14 06:27:18;;;;;;;6.75;5.53;;;;;;;19.66;100.00;100167.97;5589018;31;33924;-68
2023/09/14 06:30:21;;;;;;;10.88;5.72;;;;;;;19.59;100.00;100169.94;5589101;31;33851;-67
2023/09/14 06:33:23;;;;;;;7.62;5.37;;;;;;;19.74;100.00;100179.22;5588897;31;34102;-69
2023/09/14 06:36:26;;;;;;;10.13;5.20;;;;;;;20.04;100.00;100189.91;5589077;31;33933;-69
2023/09/14 06:39:29;;;;;;;9.10;5.20;;;;;;;20.75;100.00;100188.78;5589229;31;34478;-69
2023/09/14 06:42:34;;;;;;;7.57;4.60;;;;;;;21.20;100.00;100196.97;5588954;31;33931;-70
2023/09/14 06:45:37;;;;;;;8.43;4.60;;;;;;;21.74;100.00;100200.06;5588774;31;34137;-69
2023/09/14 06:48:40;;;;;;;9.98;4.20;;;;;;;22.16;100.00;100189.69;5588713;31;34654;-70
2023/09/14 06:51:43;;;;;;;9.68;4.60;;;;;;;22.60;100.00;100196.78;5588726;31;34682;-69
2023/09/14 06:54:46;;;;;;;7.70;4.35;;;;;;;22.93;100.00;100193.16;5587672;31;33969;-69
2023/09/14 06:57:49;;;;;;;7.40;4.28;;;;;;;23.02;100.00;100198.94;5588990;31;33989;-70
2023/09/14 07:00:52;;;;;;;8.65;5.07;;;;;;;21.87;100.00;100210.56;5588853;31;33806;-69
2023/09/14 07:03:55;;;;;;;6.93;4.50;;;;;;;22.03;100.00;100213.25;5588590;31;34340;-70
2023/09/14 07:06:58;;;;;;;10.50;4.62;;;;;;;22.34;100.00;100211.03;5588784;31;34411;-69
2023/09/14 07:10:01;;;;;;;6.72;4.35;;;;;;;23.21;100.00;100205.66;5588367;31;33925;-70
2023/09/14 07:13:05;;;;;;;7.03;4.03;;;;;;;23.32;100.00;100207.41;5588471;31;34581;-70
2023/09/14 07:16:08;;;;;;;7.35;4.25;;;;;;;24.20;100.00;100222.28;5587863;31;34455;-70
2023/09/14 07:19:13;;;;;;;11.18;4.50;;;;;;;23.78;100.00;100217.59;5588233;31;34523;-70
2023/09/14 07:22:17;;;;;;;8.38;4.55;;;;;;;23.96;100.00;100229.12;5587661;31;35009;-70
2023/09/14 07:25:20;;;;;;;6.35;3.65;;;;;;;23.22;100.00;100239.75;5588393;31;34030;-68
2023/09/14 07:28:23;;;;;;;11.55;4.37;;;;;;;23.39;100.00;100230.47;5588378;31;33916;-69
2023/09/14 07:31:26;;;;;;;7.07;4.18;;;;;;;23.58;100.00;100239.06;5588365;31;34055;-69
2023/09/14 07:34:29;;;;;;;9.35;4.15;;;;;;;23.98;100.00;100245.94;5588220;31;34162;-70
2023/09/14 07:37:32;;;;;;;10.32;4.65;;;;;;;23.02;100.00;100237.66;5587950;31;34006;-70
2023/09/14 07:40:36;;;;;;;16.40;4.50;;;;;;;22.59;100.00;100246.53;5587317;31;33817;-69
2023/09/14 07:43:39;;;;;;;9.68;4.93;;;;;;;23.14;100.00;100242.94;5588232;31;33933;-70
2023/09/14 07:46:42;;;;;;;7.45;4.62;;;;;;;23.03;100.00;100255.53;5587906;31;33918;-69
2023/09/14 07:49:45;;;;;;;11.40;5.00;;;;;;;23.82;100.00;100253.94;5588362;31;34455;-69
2023/09/14 07:52:48;;;;;;;6.65;4.20;;;;;;;25.45;100.00;100244.84;5587691;31;34617;-70
2023/09/14 07:55:53;;;;;;;17.12;5.20;;;;;;;25.68;100.00;100266.09;5588268;31;33771;-71
2023/09/14 07:58:56;;;;;;;7.97;4.60;;;;;;;25.74;100.00;100258.78;5587022;31;34630;-71
2023/09/14 08:02:02;;;;;;;12.50;4.50;;;;;;;25.48;100.00;100257.87;5587653;31;33753;-71
2023/09/14 08:05:05;;;;;;;13.00;4.68;;;;;;;25.65;100.00;100266.66;5587205;31;35009;-69
2023/09/14 08:08:09;;;;;;;8.40;4.90;;;;;;;25.12;100.00;100268.63;5587528;31;33906;-69
2023/09/14 08:11:12;;;;;;;10.90;5.00;;;;;;;24.41;100.00;100270.13;5587535;31;33960;-71
2023/09/14 08:14:14;;;;;;;16.10;5.18;;;;;;;24.39;100.00;100269.59;5587138;31;34239;-70
2023/09/14 08:17:17;;;;;;;8.23;4.68;;;;;;;24.13;100.00;100273.16;5587443;31;34520;-70
2023/09/14 08:20:20;;;;;;;12.23;5.22;;;;;;;24.05;100.00;100282.59;5587168;31;33821;-70
2023/09/14 08:23:23;;;;;;;9.57;4.65;;;;;;;23.69;100.00;100280.63;5587457;31;32431;-68
2023/09/14 08:26:25;;;;;;;8.73;4.80;;;;;;;23.70;100.00;100282.25;5587079;31;33939;-69
2023/09/14 08:29:30;;;;;;;11.20;5.07;;;;;;;23.91;100.00;100281.37;5586856;31;34039;-69
2023/09/14 08:32:32;;;;;;;10.27;5.22;;;;;;;24.34;100.00;100277.69;5587639;31;33944;-69
2023/09/14 08:35:36;;;;;;;9.57;4.70;;;;;;;24.74;100.00;100290.69;5589972;31;34730;-70
2023/09/14 08:38:39;;;;;;;9.85;4.50;;;;;;;25.48;100.00;100296.72;5589758;31;33871;-70
2023/09/14 08:41:43;;;;;;;15.80;4.43;;;;;;;26.67;96.76;100291.91;5589818;31;33958;-70
2023/09/14 08:44:47;;;;;;;9.90;4.43;;;;;;;26.80;93.67;100288.59;5589861;31;34520;-70
2023/09/14 08:47:50;;;;;;;8.05;3.90;;;;;;;28.65;75.58;100294.28;5590210;31;33887;-71
2023/09/14 08:50:55;;;;;;;21.12;4.35;;;;;;;27.67;79.77;100289.88;5589593;31;33850;-71
2023/09/14 08:53:59;;;;;;;24.92;4.12;;;;;;;28.11;75.21;100278.94;5589798;31;34128;-70
2023/09/14 08:57:18;;;;;;;6.68;4.32;;;;;;;28.27;74.58;100290.56;5589863;31;33976;-70
2023/09/14 09:00:24;;;;;;;10.70;4.28;;;;;;;25.78;99.21;100285.13;5589925;31;34363;-69
2023/09/14 09:03:28;;;;;;;7.12;3.75;;;;;;;25.71;99.57;100290.00;5589584;31;33887;-70
2023/09/14 09:06:31;;;;;;;7.72;3.78;;;;;;;25.19;96.74;100292.81;5589668;31;34011;-69
2023/09/14 09:09:34;;;;;;;8.02;3.90;;;;;;;24.59;100.00;100285.97;5589714;31;33973;-69
2023/09/14 09:12:37;;;;;;;9.23;4.10;;;;;;;24.76;97.71;100288.53;5589658;31;34603;-69
2023/09/14 09:15:40;;;;;;;11.35;4.07;;;;;;;24.90;94.79;100294.31;5589719;31;34428;-70
2023/09/14 09:19:02;;;;;;;9.93;4.65;;;;;;;24.33;100.00;100295.03;5589531;31;34632;-69
2023/09/14 09:22:10;;;;;;;8.10;4.22;;;;;;;23.13;100.00;100298.13;5590239;31;33823;-69
2023/09/14 09:25:13;;;;;;;10.13;4.43;;;;;;;22.86;100.00;100298.84;5589719;31;34016;-70
2023/09/14 09:28:16;;;;;;;13.43;4.62;;;;;;;22.95;100.00;100294.63;5589456;31;34619;-68
2023/09/14 09:31:19;;;;;;;8.35;4.75;;;;;;;22.96;100.00;100301.69;5589824;31;34190;-70
2023/09/14 09:34:28;;;;;;;9.05;4.43;;;;;;;23.38;100.00;100301.94;5589638;31;34591;-69
2023/09/14 09:37:34;;;;;;;6.97;4.10;;;;;;;23.84;100.00;100291.59;5589690;31;34748;-69
2023/09/14 09:40:43;;;;;;;7.57;4.50;;;;;;;24.55;100.00;100290.28;5589588;31;34747;-69
2023/09/14 09:43:49;;;;;;;8.23;4.40;;;;;;;24.14;100.00;100289.16;5588949;31;33871;-71
2023/09/14 09:46:56;;;;;;;6.47;4.15;;;;;;;24.23;100.00;100290.34;5589367;31;33889;-70
2023/09/14 09:49:59;;;;;;;8.60;4.40;;;;;;;23.78;100.00;100282.59;5589539;31;34553;-70
2023/09/14 09:53:02;;;;;;;7.70;4.22;;;;;;;24.33;100.00;100280.66;5589447;31;33913;-70
2023/09/14 09:56:18;;;;;;;8.52;4.60;;;;;;;24.82;100.00;100284.78;5591369;31;34518;-71
2023/09/14 09:59:23;;;;;;;8.30;4.40;;;;;;;25.07;100.00;100281.37;5589214;31;33949;-70
2023/09/14 10:02:31;;;;;;;;;;;;;;;25.27;100.00;100283.38;5590308;31;33873;-70
2023/09/14 10:05:38;;;;;;;9.50;4.30;;;;;;;25.05;100.00;100289.78;5588877;31;34260;-72
2023/09/14 10:08:57;;;;;;;8.05;4.22;;;;;;;24.48;100.00;100286.19;5588458;31;34588;-71
2023/09/14 10:12:03;;;;;;;5.03;3.50;;;;;;;24.72;99.51;100290.12;5589304;31;33538;-70
2023/09/14 10:15:07;;;;;;;8.55;4.50;;;;;;;24.44;96.58;100290.50;5588586;31;34660;-69
2023/09/14 10:18:12;;;;;;;10.95;4.00;;;;;;;24.19;100.00;100289.25;5589399;31;33890;-69
2023/09/14 10:21:16;;;;;;;6.03;3.78;;;;;;;23.99;100.00;100290.94;5589119;31;34485;-68
2023/09/14 10:24:20;;;;;;;5.57;3.80;;;;;;;24.18;98.97;100292.19;5589484;31;33971;-69
2023/09/14 10:27:27;;;;;;;8.60;4.22;;;;;;;24.88;94.23;100300.03;5589002;31;33948;-69
2023/09/14 10:30:30;;;;;;;8.43;3.75;;;;;;;24.61;92.61;100297.38;5589628;31;34513;-70
2023/09/14 10:33:33;;;;;;;8.45;4.40;;;;;;;24.38;93.56;100297.78;5589369;31;33830;-69
2023/09/14 10:36:38;;;;;;;10.88;4.07;;;;;;;24.20;94.83;100298.19;5588566;31;34529;-69
2023/09/14 10:39:45;;;;;;;7.70;4.00;;;;;;;24.31;97.42;100304.50;5589049;31;34981;-69
2023/09/14 10:42:48;;;;;;;8.20;3.83;;;;;;;24.55;91.86;100294.91;5589272;31;33964;-70
2023/09/14 10:45:58;;;;;;;4.93;3.50;;;;;;;24.84;85.54;100303.47;5589007;31;33849;-69
2023/09/14 10:49:03;;;;;;;9.82;4.05;;;;;;;25.07;80.20;100301.22;5590198;31;34937;-69
2023/09/14 10:52:05;;;;;;;7.12;4.03;;;;;;;26.27;73.93;100304.47;5588782;31;33853;-68
2023/09/14 10:55:10;;;;;;;7.57;3.72;;;;;;;27.46;65.44;100301.97;5588432;31;34683;-68
2023/09/14 10:58:15;;;;;;;6.35;3.67;;;;;;;26.60;67.43;100303.06;5588523;31;34880;-69
2023/09/14 11:01:24;;;;;;;7.32;3.50;;;;;;;27.33;63.09;100303.41;5589126;31;33963;-68
2023/09/14 11:04:28;;;;;;;7.00;3.85;;;;;;;27.48;63.05;100300.59;5588146;31;34491;-71
2023/09/14 11:07:39;;;;;;;6.47;3.60;;;;;;;27.57;62.50;100306.31;5588741;31;33777;-70
2023/09/14 11:10:58;;;;;;;8.68;3.65;;;;;;;29.34;55.72;100301.94;5588569;31;34098;-71
2023/09/14 11:14:07;;;;;;;6.57;3.35;;;;;;;29.99;52.07;100293.91;5588781;31;33753;-70
2023/09/14 11:17:22;;;;;;;4.53;3.15;;;;;;;28.57;56.47;100294.87;5588658;31;34589;-70
2023/09/14 11:20:26;;;;;;;11.38;3.70;;;;;;;26.61;63.96;100295.72;5588519;31;34469;-70
2023/09/14 11:23:37;;;;;;;6.68;3.60;;;;;;;26.63;68.70;100299.78;5588434;31;34547;-69
2023/09/14 11:26:46;;;;;;;8.90;3.90;;;;;;;25.19;89.89;100290.09;5587747;31;33955;-69
2023/09/14 11:29:52;;;;;;;7.93;3.85;;;;;;;24.78;100.00;100285.56;5588848;31;34125;-71
2023/09/14 11:33:02;;;;;;;9.25;3.97;;;;;;;;;;5588529;31;33867;-69
2023/09/14 11:36:07;;;;;;;7.15;4.15;;;;;;;24.11;100.00;100297.78;5588569;31;35010;-69
2023/09/14 11:39:15;;;;;;;5.90;3.95;;;;;;;23.67;100.00;100297.13;5588117;31;34078;-69
2023/09/14 11:42:23;;;;;;;6.37;4.05;;;;;;;23.70;100.00;100299.34;5587925;31;34032;-69
2023/09/14 11:45:33;;;;;;;7.45;3.95;;;;;;;23.91;100.00;100292.22;5588433;31;33813;-71
2023/09/14 11:48:42;;;;;;;8.63;4.28;;;;;;;24.14;100.00;100291.87;5588147;31;33973;-70
2023/09/14 11:51:51;;;;;;;5.45;2.75;;;;;;;24.35;100.00;100301.00;5588069;31;34596;-68
2023/09/14 11:54:54;;;;;;;8.63;3.42;;;;;;;24.65;87.60;100293.06;5588034;31;34516;-70
2023/09/14 11:57:57;;;;;;;7.18;3.15;;;;;;;25.36;82.94;100307.03;5588044;31;33871;-69
2023/09/14 12:01:00;;;;;;;5.55;3.17;;;;;;;26.29;84.05;100304.19;5587751;31;34499;-68
2023/09/14 12:04:05;;;;;;;8.63;3.35;;;;;;;26.90;82.21;100307.66;5587975;31;33882;-68
2023/09/14 12:07:09;;;;;;;7.07;3.55;;;;;;;27.01;79.74;100301.09;5587104;31;33852;-69
2023/09/14 12:10:20;;;;;;;9.95;3.40;;;;;;;26.12;92.02;100304.44;5590542;31;34557;-70
2023/09/14 12:13:22;;;;;;;5.93;3.40;;;;;;;26.12;92.28;100307.19;5589954;31;34108;-68
2023/09/14 12:16:27;;;;;;;4.72;3.20;;;;;;;26.16;90.89;100305.53;5590327;31;33863;-70
2023/09/14 12:19:30;;;;;;;4.85;3.30;;;;;;;25.62;98.55;100301.66;5590341;31;34888;-70
2023/09/14 12:22:34;;;;;;;8.25;3.00;;;;;;;27.37;83.97;100298.19;5590326;31;33773;-71
2023/09/14 12:25:38;;;;;;;5.70;2.45;;;;;;;28.24;76.24;100307.47;5589988;31;34044;-69
2023/09/14 12:28:49;;;;;;;5.50;2.65;;;;;;;27.51;79.59;100312.88;5589543;31;33736;-71
2023/09/14 12:31:52;;;;;;;4.65;2.50;;;;;;;25.20;100.00;100307.22;5589639;31;33895;-72
2023/09/14 12:34:56;;;;;;;5.97;2.50;;;;;;;25.38;100.00;100301.31;5590208;31;34839;-70
2023/09/14 12:38:03;;;;;;;3.78;2.40;;;;;;;24.50;100.00;100301.09;5590240;31;33877;-69
2023/09/14 12:41:06;;;;;;;4.95;2.87;;;;;;;24.83;100.00;100297.25;5590033;31;33918;-68
2023/09/14 12:44:09;;;;;;;4.30;2.60;;;;;;;24.71;100.00;100312.91;5589911;31;34680;-68
2023/09/14 12:47:13;;;;;;;7.72;2.50;;;;;;;24.58;100.00;100297.94;5589779;31;34153;-70
2023/09/14 12:50:15;;;;;;;4.55;2.40;;;;;;;24.90;100.00;100303.28;5590333;31;33831;-70
2023/09/14 12:53:19;;;;;;;4.93;2.53;;;;;;;24.34;100.00;100306.69;5590046;31;34604;-69
2023/09/14 12:56:22;;;;;;;5.93;2.55;;;;;;;24.55;100.00;100305.75;5590305;31;32974;-70
2023/09/14 12:59:25;;;;;;;8.00;2.70;;;;;;;24.94;100.00;100307.09;5590158;31;33844;-69
2023/09/14 13:02:29;;;;;;;5.30;2.20;;;;;;;24.58;100.00;100313.38;5590097;31;33987;-71
2023/09/14 13:05:32;;;;;;;4.97;2.30;;;;;;;25.05;100.00;100310.69;5590046;31;34591;-70
2023/09/14 13:08:43;;;;;;;9.25;2.20;;;;;;;24.79;100.00;100320.53;5590129;31;34047;-69
2023/09/14 13:11:51;;;;;;;4.93;2.10;;;;;;;24.80;100.00;100315.94;5589806;31;34658;-67
2023/09/14 13:14:54;;;;;;;4.80;2.20;;;;;;;24.58;100.00;100321.53;5589720;31;33924;-70
2023/09/14 13:18:05;;;;;;;5.47;1.87;;;;;;;24.52;100.00;100322.56;5589805;31;35357;-70
2023/09/14 13:21:08;;;;;;;5.07;2.05;;;;;;;24.25;100.00;100336.19;5588851;31;34923;-70
2023/09/14 13:24:13;;;;;;;4.70;2.15;;;;;;;24.16;100.00;100330.41;5588992;31;33971;-68
2023/09/14 13:27:15;;;;;;;6.10;2.03;;;;;;;24.14;100.00;100329.81;5590117;31;33856;-69
2023/09/14 13:30:19;;;;;;;5.37;2.03;;;;;;;23.69;100.00;100324.78;5589614;31;33855;-69
2023/09/14 13:33:22;;;;;;;2.75;2.17;;;;;;;23.73;100.00;100331.31;5575976;31;33905;-70
2023/09/14 13:36:25;;;;;;;5.40;2.00;;;;;;;23.50;100.00;100325.37;5589244;31;33878;-70
2023/09/14 13:39:28;;;;;;;5.75;2.20;;;;;;;23.61;100.00;100325.25;5589246;31;33995;-71
2023/09/14 13:42:32;;;;;;;3.78;1.87;;;;;;;23.65;100.00;100334.50;5589396;31;33866;-69
2023/09/14 13:45:34;;;;;;;5.82;2.33;;;;;;;23.50;100.00;100331.63;5589284;31;34881;-70
2023/09/14 13:48:37;;;;;;;4.97;2.20;;;;;;;23.57;100.00;100332.25;5589085;31;33841;-71
2023/09/14 13:51:40;;;;;;;4.53;2.00;;;;;;;23.74;100.00;100332.97;5589263;31;33921;-69
2023/09/14 13:54:43;;;;;;;3.33;2.00;;;;;;;23.68;100.00;100338.56;5589133;31;34533;-70
2023/09/14 13:57:46;;;;;;;2.50;1.80;;;;;;;23.56;100.00;100340.62;5589245;31;34515;-68
2023/09/14 14:00:49;;;;;;;16.85;2.67;;;;;;;23.49;100.00;100340.81;5589216;31;33985;-70
2023/09/14 14:03:53;;;;;;;5.12;1.95;;;;;;;23.43;100.00;100349.91;5588428;31;33757;-71
2023/09/14 14:06:56;;;;;;;3.67;2.00;;;;;;;23.62;100.00;100350.44;5589260;31;34006;-69
2023/09/14 14:09:59;;;;;;;5.00;2.08;;;;;;;23.45;100.00;100355.09;5589695;31;34612;-69